sensor_id;sensor_type;location;lat;lon;timestamp;P1;durP1;ratioP1;P2;durP2;ratioP2
13584;SDS011;6863;48.402;9.994;2023-05-01T00:00:32;6.10;;;5.60;;
13584;SDS011;6863;48.402;9.994;2023-05-01T00:02:58;6.33;;;5.73;;
13584;SDS011;6863;48.402;9.994;2023-05-01T00:05:23;6.23;;;5.73;;
13584;SDS011;6863;48.402;9.994;2023-05-01T00:07:49;5.20;;;4.80;;
13584;SDS011;6863;48.402;9.994;2023-05-01T00:10:15;6.20;;;5.60;;
13584;SDS011;6863;48.402;9.994;2023-05-01T00:12:41;6.23;;;5.70;;
13584;SDS011;6863;48.402;9.994;2023-05-01T00:15:06;5.60;;;5.17;;
13584;SDS011;6863;48.402;9.994;2023-05-01T00:17:32;5.77;;;5.27;;
13584;SDS011;6863;48.402;9.994;2023-05-01T00:19:58;6.60;;;6.00;;
13584;SDS011;6863;48.402;9.994;2023-05-01T00:22:24;5.80;;;5.30;;
13584;SDS011;6863;48.402;9.994;2023-05-01T00:24:49;6.60;;;6.00;;
13584;SDS011;6863;48.402;9.994;2023-05-01T00:27:15;6.13;;;5.63;;
13584;SDS011;6863;48.402;9.994;2023-05-01T00:29:41;6.83;;;6.13;;
13584;SDS011;6863;48.402;9.994;2023-05-01T00:32:06;6.30;;;5.80;;
13584;SDS011;6863;48.402;9.994;2023-05-01T00:34:32;6.53;;;5.90;;
13584;SDS011;6863;48.402;9.994;2023-05-01T00:36:58;6.00;;;5.50;;
13584;SDS011;6863;48.402;9.994;2023-05-01T00:39:24;5.97;;;5.47;;
13584;SDS011;6863;48.402;9.994;2023-05-01T00:41:49;5.93;;;5.43;;
13584;SDS011;6863;48.402;9.994;2023-05-01T00:44:15;6.17;;;5.60;;
13584;SDS011;6863;48.402;9.994;2023-05-01T00:46:41;5.93;;;5.40;;
13584;SDS011;6863;48.402;9.994;2023-05-01T00:49:07;6.30;;;5.30;;
13584;SDS011;6863;48.402;9.994;2023-05-01T00:51:33;5.80;;;5.30;;
13584;SDS011;6863;48.402;9.994;2023-05-01T00:54:00;6.60;;;6.00;;
13584;SDS011;6863;48.402;9.994;2023-05-01T00:56:27;6.17;;;5.70;;
13584;SDS011;6863;48.402;9.994;2023-05-01T00:58:53;5.57;;;5.03;;
13584;SDS011;6863;48.402;9.994;2023-05-01T01:01:20;6.80;;;6.10;;
13584;SDS011;6863;48.402;9.994;2023-05-01T01:03:46;6.30;;;5.63;;
13584;SDS011;6863;48.402;9.994;2023-05-01T01:06:23;5.53;;;5.03;;
13584;SDS011;6863;48.402;9.994;2023-05-01T01:09:11;5.73;;;5.23;;
13584;SDS011;6863;48.402;9.994;2023-05-01T01:14:43;6.00;;;5.50;;
13584;SDS011;6863;48.402;9.994;2023-05-01T01:17:23;5.53;;;5.13;;
13584;SDS011;6863;48.402;9.994;2023-05-01T01:23:12;6.30;;;5.80;;
13584;SDS011;6863;48.402;9.994;2023-05-01T01:26:23;5.77;;;5.30;;
13584;SDS011;6863;48.402;9.994;2023-05-01T01:31:36;5.80;;;5.33;;
13584;SDS011;6863;48.402;9.994;2023-05-01T01:34:14;5.63;;;5.13;;
13584;SDS011;6863;48.402;9.994;2023-05-01T01:36:48;5.33;;;4.93;;
13584;SDS011;6863;48.402;9.994;2023-05-01T01:42:08;5.90;;;5.40;;
13584;SDS011;6863;48.402;9.994;2023-05-01T01:44:48;5.63;;;5.13;;
13584;SDS011;6863;48.402;9.994;2023-05-01T01:47:17;6.20;;;5.60;;
13584;SDS011;6863;48.402;9.994;2023-05-01T01:49:46;5.60;;;5.20;;
13584;SDS011;6863;48.402;9.994;2023-05-01T01:52:14;6.53;;;5.80;;
13584;SDS011;6863;48.402;9.994;2023-05-01T01:54:52;6.27;;;5.77;;
13584;SDS011;6863;48.402;9.994;2023-05-01T01:57:22;5.90;;;5.40;;
13584;SDS011;6863;48.402;9.994;2023-05-01T01:59:49;6.47;;;5.87;;
13584;SDS011;6863;48.402;9.994;2023-05-01T02:02:16;6.63;;;6.03;;
13584;SDS011;6863;48.402;9.994;2023-05-01T02:04:44;6.50;;;6.00;;
13584;SDS011;6863;48.402;9.994;2023-05-01T02:07:10;6.77;;;5.30;;
13584;SDS011;6863;48.402;9.994;2023-05-01T02:09:38;6.27;;;5.67;;
13584;SDS011;6863;48.402;9.994;2023-05-01T02:12:06;6.57;;;6.07;;
13584;SDS011;6863;48.402;9.994;2023-05-01T02:14:32;6.17;;;5.57;;
13584;SDS011;6863;48.402;9.994;2023-05-01T02:16:59;5.80;;;5.40;;
13584;SDS011;6863;48.402;9.994;2023-05-01T02:19:26;6.20;;;5.53;;
13584;SDS011;6863;48.402;9.994;2023-05-01T02:21:54;6.00;;;5.50;;
13584;SDS011;6863;48.402;9.994;2023-05-01T02:24:22;6.43;;;5.83;;
13584;SDS011;6863;48.402;9.994;2023-05-01T02:26:50;6.40;;;5.80;;
13584;SDS011;6863;48.402;9.994;2023-05-01T02:29:20;6.63;;;5.90;;
13584;SDS011;6863;48.402;9.994;2023-05-01T02:31:46;6.40;;;5.80;;
13584;SDS011;6863;48.402;9.994;2023-05-01T02:34:12;6.57;;;5.97;;
13584;SDS011;6863;48.402;9.994;2023-05-01T02:36:37;6.73;;;6.03;;
13584;SDS011;6863;48.402;9.994;2023-05-01T02:39:03;6.03;;;5.53;;
13584;SDS011;6863;48.402;9.994;2023-05-01T02:41:29;6.53;;;5.97;;
13584;SDS011;6863;48.402;9.994;2023-05-01T02:43:59;6.77;;;6.17;;
13584;SDS011;6863;48.402;9.994;2023-05-01T02:46:28;6.43;;;5.83;;
13584;SDS011;6863;48.402;9.994;2023-05-01T02:48:58;8.40;;;5.77;;
13584;SDS011;6863;48.402;9.994;2023-05-01T02:51:26;6.50;;;5.93;;
13584;SDS011;6863;48.402;9.994;2023-05-01T02:53:53;7.03;;;6.43;;
13584;SDS011;6863;48.402;9.994;2023-05-01T02:56:19;6.27;;;5.67;;
13584;SDS011;6863;48.402;9.994;2023-05-01T02:58:46;7.73;;;6.10;;
13584;SDS011;6863;48.402;9.994;2023-05-01T03:01:13;6.30;;;5.80;;
13584;SDS011;6863;48.402;9.994;2023-05-01T03:03:39;6.80;;;6.10;;
13584;SDS011;6863;48.402;9.994;2023-05-01T03:06:04;6.07;;;5.33;;
13584;SDS011;6863;48.402;9.994;2023-05-01T03:08:30;6.77;;;6.17;;
13584;SDS011;6863;48.402;9.994;2023-05-01T03:10:55;6.60;;;6.00;;
13584;SDS011;6863;48.402;9.994;2023-05-01T03:13:21;6.53;;;5.93;;
13584;SDS011;6863;48.402;9.994;2023-05-01T03:15:47;6.10;;;5.60;;
13584;SDS011;6863;48.402;9.994;2023-05-01T03:18:12;6.83;;;6.13;;
13584;SDS011;6863;48.402;9.994;2023-05-01T03:20:38;6.30;;;5.80;;
13584;SDS011;6863;48.402;9.994;2023-05-01T03:23:03;6.60;;;6.00;;
13584;SDS011;6863;48.402;9.994;2023-05-01T03:25:30;5.80;;;5.33;;
13584;SDS011;6863;48.402;9.994;2023-05-01T03:27:56;7.37;;;5.77;;
13584;SDS011;6863;48.402;9.994;2023-05-01T03:30:25;6.97;;;6.37;;
13584;SDS011;6863;48.402;9.994;2023-05-01T03:32:51;6.60;;;6.00;;
13584;SDS011;6863;48.402;9.994;2023-05-01T03:35:17;6.33;;;5.83;;
13584;SDS011;6863;48.402;9.994;2023-05-01T03:37:42;6.43;;;5.93;;
13584;SDS011;6863;48.402;9.994;2023-05-01T03:40:08;6.50;;;5.90;;
13584;SDS011;6863;48.402;9.994;2023-05-01T03:42:34;6.60;;;6.10;;
13584;SDS011;6863;48.402;9.994;2023-05-01T03:44:59;6.10;;;5.50;;
13584;SDS011;6863;48.402;9.994;2023-05-01T03:47:25;6.43;;;5.83;;
13584;SDS011;6863;48.402;9.994;2023-05-01T03:49:51;6.83;;;5.93;;
13584;SDS011;6863;48.402;9.994;2023-05-01T03:52:16;7.10;;;6.33;;
13584;SDS011;6863;48.402;9.994;2023-05-01T03:54:42;6.50;;;5.90;;
13584;SDS011;6863;48.402;9.994;2023-05-01T03:57:08;6.80;;;6.20;;
13584;SDS011;6863;48.402;9.994;2023-05-01T03:59:34;6.73;;;6.23;;
13584;SDS011;6863;48.402;9.994;2023-05-01T04:01:59;6.87;;;6.17;;
13584;SDS011;6863;48.402;9.994;2023-05-01T04:04:25;6.77;;;6.10;;
13584;SDS011;6863;48.402;9.994;2023-05-01T04:06:50;6.73;;;5.90;;
13584;SDS011;6863;48.402;9.994;2023-05-01T04:09:16;6.93;;;6.30;;
13584;SDS011;6863;48.402;9.994;2023-05-01T04:11:42;6.43;;;5.80;;
13584;SDS011;6863;48.402;9.994;2023-05-01T04:14:08;6.03;;;5.63;;
13584;SDS011;6863;48.402;9.994;2023-05-01T04:16:33;6.20;;;5.70;;
13584;SDS011;6863;48.402;9.994;2023-05-01T04:18:59;6.27;;;5.77;;
13584;SDS011;6863;48.402;9.994;2023-05-01T04:21:25;6.50;;;5.90;;
13584;SDS011;6863;48.402;9.994;2023-05-01T04:23:50;6.93;;;6.23;;
13584;SDS011;6863;48.402;9.994;2023-05-01T04:26:16;6.23;;;5.73;;
13584;SDS011;6863;48.402;9.994;2023-05-01T04:28:41;6.23;;;5.63;;
13584;SDS011;6863;48.402;9.994;2023-05-01T04:31:07;6.20;;;5.70;;
13584;SDS011;6863;48.402;9.994;2023-05-01T04:33:33;6.50;;;6.00;;
13584;SDS011;6863;48.402;9.994;2023-05-01T04:35:59;6.53;;;5.80;;
13584;SDS011;6863;48.402;9.994;2023-05-01T04:38:25;6.50;;;6.00;;
13584;SDS011;6863;48.402;9.994;2023-05-01T04:40:50;6.90;;;6.30;;
13584;SDS011;6863;48.402;9.994;2023-05-01T04:43:16;7.47;;;6.27;;
13584;SDS011;6863;48.402;9.994;2023-05-01T04:45:42;7.03;;;6.33;;
13584;SDS011;6863;48.402;9.994;2023-05-01T04:48:07;6.50;;;5.90;;
13584;SDS011;6863;48.402;9.994;2023-05-01T04:50:33;6.67;;;6.13;;
13584;SDS011;6863;48.402;9.994;2023-05-01T04:52:58;6.50;;;6.00;;
13584;SDS011;6863;48.402;9.994;2023-05-01T04:55:24;7.10;;;6.50;;
13584;SDS011;6863;48.402;9.994;2023-05-01T04:57:50;6.77;;;6.17;;
13584;SDS011;6863;48.402;9.994;2023-05-01T05:00:16;6.73;;;6.20;;
13584;SDS011;6863;48.402;9.994;2023-05-01T05:02:43;7.13;;;6.47;;
13584;SDS011;6863;48.402;9.994;2023-05-01T05:05:10;7.20;;;6.40;;
13584;SDS011;6863;48.402;9.994;2023-05-01T05:07:35;7.20;;;6.50;;
13584;SDS011;6863;48.402;9.994;2023-05-01T05:10:01;6.97;;;6.37;;
13584;SDS011;6863;48.402;9.994;2023-05-01T05:12:27;7.43;;;6.83;;
13584;SDS011;6863;48.402;9.994;2023-05-01T05:14:52;7.00;;;6.50;;
13584;SDS011;6863;48.402;9.994;2023-05-01T05:17:18;7.97;;;7.27;;
13584;SDS011;6863;48.402;9.994;2023-05-01T05:19:43;7.70;;;7.10;;
13584;SDS011;6863;48.402;9.994;2023-05-01T05:22:09;8.10;;;7.40;;
13584;SDS011;6863;48.402;9.994;2023-05-01T05:24:36;8.03;;;7.33;;
13584;SDS011;6863;48.402;9.994;2023-05-01T05:27:02;7.67;;;6.97;;
13584;SDS011;6863;48.402;9.994;2023-05-01T05:29:28;7.33;;;6.63;;
13584;SDS011;6863;48.402;9.994;2023-05-01T05:31:53;7.87;;;7.17;;
13584;SDS011;6863;48.402;9.994;2023-05-01T05:34:21;8.30;;;6.60;;
13584;SDS011;6863;48.402;9.994;2023-05-01T05:36:47;8.37;;;7.63;;
13584;SDS011;6863;48.402;9.994;2023-05-01T05:39:13;7.57;;;6.90;;
13584;SDS011;6863;48.402;9.994;2023-05-01T05:41:39;7.50;;;6.90;;
13584;SDS011;6863;48.402;9.994;2023-05-01T05:44:04;8.53;;;7.63;;
13584;SDS011;6863;48.402;9.994;2023-05-01T05:46:30;8.07;;;7.37;;
13584;SDS011;6863;48.402;9.994;2023-05-01T05:48:56;7.83;;;6.93;;
13584;SDS011;6863;48.402;9.994;2023-05-01T05:51:21;8.27;;;7.47;;
13584;SDS011;6863;48.402;9.994;2023-05-01T05:53:47;8.10;;;7.30;;
13584;SDS011;6863;48.402;9.994;2023-05-01T05:56:12;7.63;;;7.03;;
13584;SDS011;6863;48.402;9.994;2023-05-01T05:58:38;7.53;;;6.60;;
13584;SDS011;6863;48.402;9.994;2023-05-01T06:01:04;8.57;;;7.70;;
13584;SDS011;6863;48.402;9.994;2023-05-01T06:03:31;8.00;;;7.30;;
13584;SDS011;6863;48.402;9.994;2023-05-01T06:05:56;7.80;;;7.10;;
13584;SDS011;6863;48.402;9.994;2023-05-01T06:08:22;8.23;;;7.50;;
13584;SDS011;6863;48.402;9.994;2023-05-01T06:10:48;8.10;;;7.40;;
13584;SDS011;6863;48.402;9.994;2023-05-01T06:13:13;8.60;;;7.80;;
13584;SDS011;6863;48.402;9.994;2023-05-01T06:15:39;8.50;;;7.80;;
13584;SDS011;6863;48.402;9.994;2023-05-01T06:18:05;7.93;;;7.23;;
13584;SDS011;6863;48.402;9.994;2023-05-01T06:20:31;7.70;;;6.90;;
13584;SDS011;6863;48.402;9.994;2023-05-01T06:22:57;7.90;;;7.20;;
13584;SDS011;6863;48.402;9.994;2023-05-01T06:25:22;7.97;;;7.27;;
13584;SDS011;6863;48.402;9.994;2023-05-01T06:27:49;7.87;;;7.17;;
13584;SDS011;6863;48.402;9.994;2023-05-01T06:30:15;8.63;;;7.90;;
13584;SDS011;6863;48.402;9.994;2023-05-01T06:32:43;8.10;;;7.40;;
13584;SDS011;6863;48.402;9.994;2023-05-01T06:35:10;7.93;;;7.23;;
13584;SDS011;6863;48.402;9.994;2023-05-01T06:37:36;8.73;;;7.93;;
13584;SDS011;6863;48.402;9.994;2023-05-01T06:40:02;7.27;;;6.60;;
13584;SDS011;6863;48.402;9.994;2023-05-01T06:42:32;7.50;;;6.90;;
13584;SDS011;6863;48.402;9.994;2023-05-01T06:44:57;7.97;;;7.20;;
13584;SDS011;6863;48.402;9.994;2023-05-01T06:47:23;7.30;;;6.80;;
13584;SDS011;6863;48.402;9.994;2023-05-01T06:49:49;7.87;;;7.17;;
13584;SDS011;6863;48.402;9.994;2023-05-01T06:52:14;8.00;;;7.30;;
13584;SDS011;6863;48.402;9.994;2023-05-01T06:54:40;7.73;;;7.13;;
13584;SDS011;6863;48.402;9.994;2023-05-01T06:57:05;7.30;;;6.70;;
13584;SDS011;6863;48.402;9.994;2023-05-01T06:59:31;7.57;;;6.97;;
13584;SDS011;6863;48.402;9.994;2023-05-01T07:01:57;7.47;;;6.87;;
13584;SDS011;6863;48.402;9.994;2023-05-01T07:04:22;7.93;;;7.13;;
13584;SDS011;6863;48.402;9.994;2023-05-01T07:06:48;7.60;;;6.90;;
13584;SDS011;6863;48.402;9.994;2023-05-01T07:09:13;7.83;;;7.07;;
13584;SDS011;6863;48.402;9.994;2023-05-01T07:11:39;7.17;;;6.57;;
13584;SDS011;6863;48.402;9.994;2023-05-01T07:14:06;7.03;;;6.43;;
13584;SDS011;6863;48.402;9.994;2023-05-01T07:16:32;8.57;;;6.90;;
13584;SDS011;6863;48.402;9.994;2023-05-01T07:18:57;7.70;;;7.03;;
13584;SDS011;6863;48.402;9.994;2023-05-01T07:21:23;7.53;;;6.93;;
13584;SDS011;6863;48.402;9.994;2023-05-01T07:23:49;7.80;;;7.20;;
13584;SDS011;6863;48.402;9.994;2023-05-01T07:26:14;7.53;;;6.83;;
13584;SDS011;6863;48.402;9.994;2023-05-01T07:28:40;8.03;;;7.33;;
13584;SDS011;6863;48.402;9.994;2023-05-01T07:31:08;7.30;;;6.70;;
13584;SDS011;6863;48.402;9.994;2023-05-01T07:33:34;6.97;;;6.47;;
13584;SDS011;6863;48.402;9.994;2023-05-01T07:36:00;7.30;;;6.70;;
13584;SDS011;6863;48.402;9.994;2023-05-01T07:38:25;7.63;;;6.93;;
13584;SDS011;6863;48.402;9.994;2023-05-01T07:40:51;7.50;;;6.90;;
13584;SDS011;6863;48.402;9.994;2023-05-01T07:43:17;7.57;;;6.97;;
13584;SDS011;6863;48.402;9.994;2023-05-01T07:45:44;8.07;;;7.30;;
13584;SDS011;6863;48.402;9.994;2023-05-01T07:48:22;7.60;;;6.90;;
13584;SDS011;6863;48.402;9.994;2023-05-01T07:50:48;7.53;;;6.93;;
13584;SDS011;6863;48.402;9.994;2023-05-01T07:53:13;7.80;;;7.10;;
13584;SDS011;6863;48.402;9.994;2023-05-01T07:55:39;8.10;;;7.40;;
13584;SDS011;6863;48.402;9.994;2023-05-01T07:58:05;7.77;;;6.97;;
13584;SDS011;6863;48.402;9.994;2023-05-01T08:00:31;7.37;;;6.87;;
13584;SDS011;6863;48.402;9.994;2023-05-01T08:02:56;8.97;;;7.10;;
13584;SDS011;6863;48.402;9.994;2023-05-01T08:05:22;7.83;;;7.23;;
13584;SDS011;6863;48.402;9.994;2023-05-01T08:07:48;8.27;;;7.57;;
13584;SDS011;6863;48.402;9.994;2023-05-01T08:10:13;7.37;;;6.80;;
13584;SDS011;6863;48.402;9.994;2023-05-01T08:12:39;7.50;;;6.90;;
13584;SDS011;6863;48.402;9.994;2023-05-01T08:15:05;7.23;;;6.63;;
13584;SDS011;6863;48.402;9.994;2023-05-01T08:17:31;6.93;;;6.40;;
13584;SDS011;6863;48.402;9.994;2023-05-01T08:19:57;7.20;;;6.53;;
13584;SDS011;6863;48.402;9.994;2023-05-01T08:22:24;7.63;;;6.97;;
13584;SDS011;6863;48.402;9.994;2023-05-01T08:24:50;6.70;;;6.20;;
13584;SDS011;6863;48.402;9.994;2023-05-01T08:27:15;7.80;;;7.20;;
13584;SDS011;6863;48.402;9.994;2023-05-01T08:29:44;7.77;;;7.17;;
13584;SDS011;6863;48.402;9.994;2023-05-01T08:32:09;9.10;;;7.37;;
13584;SDS011;6863;48.402;9.994;2023-05-01T08:34:35;7.90;;;7.30;;
13584;SDS011;6863;48.402;9.994;2023-05-01T08:37:01;8.20;;;7.40;;
13584;SDS011;6863;48.402;9.994;2023-05-01T08:39:27;8.17;;;7.27;;
13584;SDS011;6863;48.402;9.994;2023-05-01T08:41:52;8.30;;;7.60;;
13584;SDS011;6863;48.402;9.994;2023-05-01T08:44:21;7.43;;;6.73;;
13584;SDS011;6863;48.402;9.994;2023-05-01T08:47:05;7.53;;;6.90;;
13584;SDS011;6863;48.402;9.994;2023-05-01T08:49:42;7.77;;;7.13;;
13584;SDS011;6863;48.402;9.994;2023-05-01T08:52:11;7.50;;;6.80;;
13584;SDS011;6863;48.402;9.994;2023-05-01T08:54:41;7.00;;;6.40;;
13584;SDS011;6863;48.402;9.994;2023-05-01T08:57:08;8.27;;;7.68;;
13584;SDS011;6863;48.402;9.994;2023-05-01T08:59:35;7.32;;;6.50;;
13584;SDS011;6863;48.402;9.994;2023-05-01T09:02:03;7.85;;;7.25;;
13584;SDS011;6863;48.402;9.994;2023-05-01T09:04:37;6.97;;;6.38;;
13584;SDS011;6863;48.402;9.994;2023-05-01T09:07:05;8.15;;;7.43;;
13584;SDS011;6863;48.402;9.994;2023-05-01T09:09:31;8.00;;;7.38;;
13584;SDS011;6863;48.402;9.994;2023-05-01T09:14:45;8.70;;;7.97;;
13584;SDS011;6863;48.402;9.994;2023-05-01T09:17:11;8.60;;;7.90;;
13584;SDS011;6863;48.402;9.994;2023-05-01T09:22:08;9.02;;;8.20;;
13584;SDS011;6863;48.402;9.994;2023-05-01T09:24:37;8.57;;;7.88;;
13584;SDS011;6863;48.402;9.994;2023-05-01T09:27:11;8.77;;;8.18;;
13584;SDS011;6863;48.402;9.994;2023-05-01T09:29:44;9.18;;;8.38;;
13584;SDS011;6863;48.402;9.994;2023-05-01T09:34:49;10.93;;;9.95;;
13584;SDS011;6863;48.402;9.994;2023-05-01T09:42:38;8.05;;;7.45;;
13584;SDS011;6863;48.402;9.994;2023-05-01T09:45:05;9.43;;;8.63;;
13584;SDS011;6863;48.402;9.994;2023-05-01T09:47:38;8.50;;;7.80;;
13584;SDS011;6863;48.402;9.994;2023-05-01T09:50:05;9.27;;;8.32;;
13584;SDS011;6863;48.402;9.994;2023-05-01T09:52:31;9.45;;;8.73;;
13584;SDS011;6863;48.402;9.994;2023-05-01T09:55:18;8.45;;;7.82;;
13584;SDS011;6863;48.402;9.994;2023-05-01T09:57:44;9.80;;;9.00;;
13584;SDS011;6863;48.402;9.994;2023-05-01T10:00:11;8.75;;;8.15;;
13584;SDS011;6863;48.402;9.994;2023-05-01T10:02:38;8.52;;;7.90;;
13584;SDS011;6863;48.402;9.994;2023-05-01T10:05:05;9.07;;;8.32;;
13584;SDS011;6863;48.402;9.994;2023-05-01T10:07:33;9.70;;;8.90;;
13584;SDS011;6863;48.402;9.994;2023-05-01T10:10:13;9.98;;;9.10;;
13584;SDS011;6863;48.402;9.994;2023-05-01T10:12:42;8.55;;;7.53;;
13584;SDS011;6863;48.402;9.994;2023-05-01T10:15:07;8.40;;;7.70;;
13584;SDS011;6863;48.402;9.994;2023-05-01T10:17:34;9.23;;;8.43;;
13584;SDS011;6863;48.402;9.994;2023-05-01T10:20:00;8.00;;;7.30;;
13584;SDS011;6863;48.402;9.994;2023-05-01T10:22:26;9.20;;;8.48;;
13584;SDS011;6863;48.402;9.994;2023-05-01T10:24:52;9.23;;;8.43;;
13584;SDS011;6863;48.402;9.994;2023-05-01T10:27:18;8.27;;;7.57;;
13584;SDS011;6863;48.402;9.994;2023-05-01T10:29:46;8.75;;;8.05;;
13584;SDS011;6863;48.402;9.994;2023-05-01T10:32:16;8.77;;;8.05;;
13584;SDS011;6863;48.402;9.994;2023-05-01T10:34:42;9.10;;;8.38;;
13584;SDS011;6863;48.402;9.994;2023-05-01T10:37:21;9.20;;;8.40;;
13584;SDS011;6863;48.402;9.994;2023-05-01T10:39:51;9.73;;;8.73;;
13584;SDS011;6863;48.402;9.994;2023-05-01T10:42:16;8.32;;;7.72;;
13584;SDS011;6863;48.402;9.994;2023-05-01T10:44:42;10.27;;;7.72;;
13584;SDS011;6863;48.402;9.994;2023-05-01T10:55:33;9.02;;;8.23;;
13584;SDS011;6863;48.402;9.994;2023-05-01T10:58:00;9.15;;;8.45;;
13584;SDS011;6863;48.402;9.994;2023-05-01T11:00:28;8.05;;;7.50;;
13584;SDS011;6863;48.402;9.994;2023-05-01T11:08:30;8.02;;;7.43;;
13584;SDS011;6863;48.402;9.994;2023-05-01T11:21:47;8.90;;;8.10;;
13584;SDS011;6863;48.402;9.994;2023-05-01T11:24:14;7.80;;;7.28;;
13584;SDS011;6863;48.402;9.994;2023-05-01T11:26:42;8.40;;;7.68;;
13584;SDS011;6863;48.402;9.994;2023-05-01T11:29:09;8.30;;;7.65;;
13584;SDS011;6863;48.402;9.994;2023-05-01T11:31:35;8.32;;;7.72;;
13584;SDS011;6863;48.402;9.994;2023-05-01T11:34:01;7.97;;;7.38;;
13584;SDS011;6863;48.402;9.994;2023-05-01T11:36:28;9.05;;;8.35;;
13584;SDS011;6863;48.402;9.994;2023-05-01T11:38:55;7.97;;;7.38;;
13584;SDS011;6863;48.402;9.994;2023-05-01T11:41:25;8.52;;;7.93;;
13584;SDS011;6863;48.402;9.994;2023-05-01T11:43:52;8.95;;;8.32;;
13584;SDS011;6863;48.402;9.994;2023-05-01T11:46:24;8.20;;;7.55;;
13584;SDS011;6863;48.402;9.994;2023-05-01T11:48:53;8.05;;;7.35;;
13584;SDS011;6863;48.402;9.994;2023-05-01T11:51:20;8.60;;;7.90;;
13584;SDS011;6863;48.402;9.994;2023-05-01T11:54:02;7.85;;;7.20;;
13584;SDS011;6863;48.402;9.994;2023-05-01T11:56:42;7.72;;;7.22;;
13584;SDS011;6863;48.402;9.994;2023-05-01T11:59:11;7.82;;;7.22;;
13584;SDS011;6863;48.402;9.994;2023-05-01T12:01:45;7.45;;;6.85;;
13584;SDS011;6863;48.402;9.994;2023-05-01T12:04:11;7.93;;;7.30;;
13584;SDS011;6863;48.402;9.994;2023-05-01T12:06:44;8.55;;;7.88;;
13584;SDS011;6863;48.402;9.994;2023-05-01T12:11:39;7.80;;;6.72;;
13584;SDS011;6863;48.402;9.994;2023-05-01T12:14:04;7.55;;;7.05;;
13584;SDS011;6863;48.402;9.994;2023-05-01T12:16:30;7.57;;;7.07;;
13584;SDS011;6863;48.402;9.994;2023-05-01T12:18:56;6.85;;;6.30;;
13584;SDS011;6863;48.402;9.994;2023-05-01T12:21:22;7.50;;;6.90;;
13584;SDS011;6863;48.402;9.994;2023-05-01T12:23:49;7.22;;;6.68;;
13584;SDS011;6863;48.402;9.994;2023-05-01T12:28:54;7.75;;;7.15;;
13584;SDS011;6863;48.402;9.994;2023-05-01T12:31:30;7.25;;;6.65;;
13584;SDS011;6863;48.402;9.994;2023-05-01T12:34:01;9.07;;;8.32;;
13584;SDS011;6863;48.402;9.994;2023-05-01T12:36:35;7.97;;;7.28;;
13584;SDS011;6863;48.402;9.994;2023-05-01T12:39:07;7.43;;;6.72;;
13584;SDS011;6863;48.402;9.994;2023-05-01T12:44:27;7.43;;;6.82;;
13584;SDS011;6863;48.402;9.994;2023-05-01T12:46:55;7.95;;;7.15;;
13584;SDS011;6863;48.402;9.994;2023-05-01T12:49:27;7.95;;;7.35;;
13584;SDS011;6863;48.402;9.994;2023-05-01T12:51:55;8.60;;;7.82;;
13584;SDS011;6863;48.402;9.994;2023-05-01T12:54:42;8.80;;;7.90;;
13584;SDS011;6863;48.402;9.994;2023-05-01T12:57:12;8.27;;;7.50;;
13584;SDS011;6863;48.402;9.994;2023-05-01T12:59:45;7.93;;;7.20;;
13584;SDS011;6863;48.402;9.994;2023-05-01T13:02:22;7.55;;;6.82;;
13584;SDS011;6863;48.402;9.994;2023-05-01T13:05:09;7.60;;;7.00;;
13584;SDS011;6863;48.402;9.994;2023-05-01T13:08:01;6.68;;;5.97;;
13584;SDS011;6863;48.402;9.994;2023-05-01T13:10:32;5.40;;;5.00;;
13584;SDS011;6863;48.402;9.994;2023-05-01T13:20:50;4.38;;;4.07;;
13584;SDS011;6863;48.402;9.994;2023-05-01T13:23:18;4.57;;;4.28;;
13584;SDS011;6863;48.402;9.994;2023-05-01T13:25:44;4.20;;;3.95;;
13584;SDS011;6863;48.402;9.994;2023-05-01T13:28:10;8.18;;;7.47;;
13584;SDS011;6863;48.402;9.994;2023-05-01T13:30:42;4.25;;;3.95;;
13584;SDS011;6863;48.402;9.994;2023-05-01T13:33:09;4.15;;;3.85;;
13584;SDS011;6863;48.402;9.994;2023-05-01T13:35:35;3.80;;;3.50;;
13584;SDS011;6863;48.402;9.994;2023-05-01T13:38:03;3.92;;;3.72;;
13584;SDS011;6863;48.402;9.994;2023-05-01T13:40:31;4.20;;;3.90;;
13584;SDS011;6863;48.402;9.994;2023-05-01T13:42:58;4.80;;;4.40;;
13584;SDS011;6863;48.402;9.994;2023-05-01T13:45:23;4.63;;;4.32;;
13584;SDS011;6863;48.402;9.994;2023-05-01T13:47:50;5.22;;;4.82;;
13584;SDS011;6863;48.402;9.994;2023-05-01T13:50:16;5.10;;;4.65;;
13584;SDS011;6863;48.402;9.994;2023-05-01T13:52:44;4.88;;;4.47;;
13584;SDS011;6863;48.402;9.994;2023-05-01T13:55:10;4.82;;;4.53;;
13584;SDS011;6863;48.402;9.994;2023-05-01T13:57:37;4.85;;;4.50;;
13584;SDS011;6863;48.402;9.994;2023-05-01T14:00:06;5.10;;;4.70;;
13584;SDS011;6863;48.402;9.994;2023-05-01T14:02:33;5.95;;;5.45;;
13584;SDS011;6863;48.402;9.994;2023-05-01T14:05:06;4.88;;;4.47;;
13584;SDS011;6863;48.402;9.994;2023-05-01T14:07:33;6.03;;;5.40;;
13584;SDS011;6863;48.402;9.994;2023-05-01T14:10:09;5.05;;;4.65;;
13584;SDS011;6863;48.402;9.994;2023-05-01T14:12:35;4.85;;;4.55;;
13584;SDS011;6863;48.402;9.994;2023-05-01T14:15:02;5.63;;;4.90;;
13584;SDS011;6863;48.402;9.994;2023-05-01T14:17:29;4.68;;;4.28;;
13584;SDS011;6863;48.402;9.994;2023-05-01T14:19:56;4.80;;;4.50;;
13584;SDS011;6863;48.402;9.994;2023-05-01T14:22:22;4.68;;;4.38;;
13584;SDS011;6863;48.402;9.994;2023-05-01T14:24:47;5.05;;;4.63;;
13584;SDS011;6863;48.402;9.994;2023-05-01T14:27:14;5.40;;;4.90;;
13584;SDS011;6863;48.402;9.994;2023-05-01T14:29:41;4.97;;;4.57;;
13584;SDS011;6863;48.402;9.994;2023-05-01T14:32:10;4.80;;;4.50;;
13584;SDS011;6863;48.402;9.994;2023-05-01T14:34:40;5.22;;;4.75;;
13584;SDS011;6863;48.402;9.994;2023-05-01T14:37:07;4.88;;;4.53;;
13584;SDS011;6863;48.402;9.994;2023-05-01T14:39:34;5.03;;;4.63;;
13584;SDS011;6863;48.402;9.994;2023-05-01T14:42:00;4.80;;;4.50;;
13584;SDS011;6863;48.402;9.994;2023-05-01T14:44:26;4.57;;;4.28;;
13584;SDS011;6863;48.402;9.994;2023-05-01T14:46:54;4.80;;;4.50;;
13584;SDS011;6863;48.402;9.994;2023-05-01T14:49:22;4.18;;;3.88;;
13584;SDS011;6863;48.402;9.994;2023-05-01T14:51:49;4.88;;;4.35;;
13584;SDS011;6863;48.402;9.994;2023-05-01T14:54:16;4.25;;;3.95;;
13584;SDS011;6863;48.402;9.994;2023-05-01T14:56:43;4.38;;;4.07;;
13584;SDS011;6863;48.402;9.994;2023-05-01T14:59:10;4.55;;;4.22;;
13584;SDS011;6863;48.402;9.994;2023-05-01T15:01:36;4.55;;;4.25;;
13584;SDS011;6863;48.402;9.994;2023-05-01T15:04:06;4.70;;;4.30;;
13584;SDS011;6863;48.402;9.994;2023-05-01T15:06:44;5.07;;;4.63;;
13584;SDS011;6863;48.402;9.994;2023-05-01T15:09:09;4.20;;;3.90;;
13584;SDS011;6863;48.402;9.994;2023-05-01T15:11:35;4.65;;;4.28;;
13584;SDS011;6863;48.402;9.994;2023-05-01T15:14:00;3.63;;;3.40;;
13584;SDS011;6863;48.402;9.994;2023-05-01T15:16:26;3.60;;;3.40;;
13584;SDS011;6863;48.402;9.994;2023-05-01T15:18:52;4.40;;;4.10;;
13584;SDS011;6863;48.402;9.994;2023-05-01T15:21:17;4.80;;;4.40;;
13584;SDS011;6863;48.402;9.994;2023-05-01T15:23:43;5.03;;;4.63;;
13584;SDS011;6863;48.402;9.994;2023-05-01T15:26:10;5.60;;;5.18;;
13584;SDS011;6863;48.402;9.994;2023-05-01T15:28:35;5.45;;;4.90;;
13584;SDS011;6863;48.402;9.994;2023-05-01T15:31:04;6.38;;;5.32;;
13584;SDS011;6863;48.402;9.994;2023-05-01T15:33:30;6.82;;;6.22;;
13584;SDS011;6863;48.402;9.994;2023-05-01T15:35:59;6.50;;;6.00;;
13584;SDS011;6863;48.402;9.994;2023-05-01T15:38:24;6.72;;;6.03;;
13584;SDS011;6863;48.402;9.994;2023-05-01T15:40:52;6.53;;;5.93;;
13584;SDS011;6863;48.402;9.994;2023-05-01T15:43:17;6.28;;;5.78;;
13584;SDS011;6863;48.402;9.994;2023-05-01T15:45:43;6.88;;;5.28;;
13584;SDS011;6863;48.402;9.994;2023-05-01T15:48:09;3.83;;;3.33;;
13584;SDS011;6863;48.402;9.994;2023-05-01T15:50:35;14.73;;;10.17;;
13584;SDS011;6863;48.402;9.994;2023-05-01T15:53:01;3.30;;;3.00;;
13584;SDS011;6863;48.402;9.994;2023-05-01T15:55:27;3.67;;;2.70;;
13584;SDS011;6863;48.402;9.994;2023-05-01T15:57:52;4.97;;;2.87;;
13584;SDS011;6863;48.402;9.994;2023-05-01T16:00:18;4.03;;;3.53;;
13584;SDS011;6863;48.402;9.994;2023-05-01T16:02:45;5.23;;;3.53;;
13584;SDS011;6863;48.402;9.994;2023-05-01T16:05:12;4.97;;;3.03;;
13584;SDS011;6863;48.402;9.994;2023-05-01T16:07:40;3.30;;;2.70;;